Time;durP1;ratioP1;P1;durP2;ratioP2;P2;SDS_P1;SDS_P2;PMS_P1;PMS_P2;Temp;Humidity;BMP_temperature;BMP_pressure;BME280_temperature;BME280_humidity;BME280_pressure;Samples;Min_cycle;Max_cycle;Signal;HPM_P1;HPM_P2
2023/05/05 00:01:10;;;;;;;15.07;11.47;;;;;;;14.98;81.01;98169.47;4166131;28;20633;-83
2023/05/05 00:03:15;;;;;;;12.30;10.87;;;;;;;14.97;81.37;98168.63;4167284;28;20636;-83
2023/05/05 00:05:18;;;;;;;12.20;10.90;;;;;;;14.94;81.65;98168.88;4168923;28;20714;-83
2023/05/05 00:07:22;;;;;;;13.73;11.40;;;;;;;14.92;81.26;98167.38;4171941;28;20657;-83
2023/05/05 00:09:25;;;;;;;13.10;11.33;;;;;;;14.89;81.14;98170.25;4153682;28;20640;-83
2023/05/05 00:11:29;;;;;;;13.10;11.80;;;;;;;14.88;81.79;98169.41;4172149;28;20983;-83
2023/05/05 00:13:32;;;;;;;13.43;11.37;;;;;;;14.86;81.59;98167.88;4172089;28;20661;-83
2023/05/05 00:15:35;;;;;;;14.23;12.00;;;;;;;14.85;81.98;98164.41;4172678;28;20664;-83
2023/05/05 00:17:38;;;;;;;12.60;11.30;;;;;;;14.85;81.55;98167.03;4172175;28;20721;-83
2023/05/05 00:19:41;;;;;;;14.83;11.60;;;;;;;14.83;82.73;98162.88;4156479;28;20644;-83
2023/05/05 00:21:44;;;;;;;13.90;11.80;;;;;;;14.81;81.85;98160.38;4171116;28;20641;-83
2023/05/05 00:23:48;;;;;;;14.60;12.30;;;;;;;14.82;83.19;98174.34;4155791;28;20625;-83
2023/05/05 00:25:51;;;;;;;13.97;12.47;;;;;;;14.81;83.45;98175.31;4173008;28;20656;-83
2023/05/05 00:27:55;;;;;;;13.50;12.10;;;;;;;14.80;82.46;98163.97;4173202;28;20969;-83
2023/05/05 00:29:58;;;;;;;14.53;13.00;;;;;;;14.80;82.97;98174.47;4173862;28;20640;-83
2023/05/05 00:32:01;;;;;;;14.67;12.37;;;;;;;14.78;82.96;98172.94;4171875;28;20630;-83
2023/05/05 00:34:05;;;;;;;15.30;12.67;;;;;;;14.77;82.52;98174.72;4171600;28;20742;-83
2023/05/05 00:36:08;;;;;;;13.20;11.33;;;;;;;14.79;82.16;98169.34;4156806;28;20764;-83
2023/05/05 00:38:11;;;;;;;16.43;12.50;;;;;;;14.76;82.52;98172.22;4168650;28;20636;-83
2023/05/05 00:40:14;;;;;;;13.70;12.30;;;;;;;14.75;81.82;98171.41;4171773;28;20651;-83
2023/05/05 00:42:18;;;;;;;13.73;12.33;;;;;;;14.73;82.63;98165.47;4170056;28;20771;-83
2023/05/05 00:44:35;;;;;;;15.90;12.77;;;;;;;14.71;83.58;98166.53;4150767;28;21321;-83
2023/05/05 00:46:39;;;;;;;14.77;12.30;;;;;;;14.68;83.62;98172.88;4171495;28;21076;-83
2023/05/05 00:48:42;;;;;;;16.27;13.40;;;;;;;14.69;83.60;98166.66;4177611;28;21291;-83
2023/05/05 00:50:45;;;;;;;17.17;12.80;;;;;;;14.68;82.86;98170.25;4170163;28;20629;-83
2023/05/05 00:52:49;;;;;;;17.37;13.13;;;;;;;14.71;83.27;98164.72;4172133;28;20625;-83
2023/05/05 00:54:52;;;;;;;12.97;11.60;;;;;;;14.72;83.33;98166.41;4172367;28;20625;-83
2023/05/05 00:56:55;;;;;;;15.23;12.57;;;;;;;14.73;83.20;98167.22;4172755;28;20709;-83
2023/05/05 00:58:58;;;;;;;16.03;13.70;;;;;;;14.72;83.85;98165.59;4173341;28;20992;-83
2023/05/05 01:01:03;;;;;;;15.87;13.10;;;;;;;14.67;84.46;98168.59;4170765;28;20731;-83
2023/05/05 01:03:06;;;;;;;15.10;12.80;;;;;;;14.65;84.42;98162.63;4156203;28;20683;-83
2023/05/05 01:05:10;;;;;;;14.90;12.80;;;;;;;14.65;83.53;98167.88;4171553;28;20749;-83
2023/05/05 01:07:19;;;;;;;16.10;12.27;;;;;;;14.65;83.11;98165.25;4168627;28;21010;-83
2023/05/05 01:09:35;;;;;;;14.33;12.80;;;;;;;14.64;83.72;98166.22;4171628;28;21008;-83
2023/05/05 01:11:42;;;;;;;15.30;13.70;;;;;;;14.62;83.50;98162.88;4173859;28;20639;-83
2023/05/05 01:13:51;;;;;;;16.50;13.80;;;;;;;14.61;84.05;98168.25;4168289;28;21234;-83
2023/05/05 01:16:00;;;;;;;15.43;13.63;;;;;;;14.59;83.18;98164.94;4169288;28;20668;-83
2023/05/05 01:18:13;;;;;;;13.60;11.90;;;;;;;14.59;83.39;98169.34;4170911;28;20974;-83
2023/05/05 01:20:21;;;;;;;14.40;11.80;;;;;;;14.57;84.09;98161.59;4153759;28;20633;-83
2023/05/05 01:22:31;;;;;;;14.27;12.70;;;;;;;14.55;83.82;98160.88;4170680;28;20661;-83
2023/05/05 01:24:48;;;;;;;13.03;11.53;;;;;;;14.55;84.57;98166.13;4172481;28;20691;-83
2023/05/05 01:26:59;;;;;;;14.10;11.70;;;;;;;14.55;83.91;98163.50;4172950;28;20684;-83
2023/05/05 01:29:32;;;;;;;30.33;12.60;;;;;;;14.55;83.84;98162.69;4162251;28;20649;-83
2023/05/05 01:31:42;;;;;;;15.67;11.80;;;;;;;14.51;84.03;98161.25;4167979;28;20663;-83
2023/05/05 01:33:49;;;;;;;15.27;12.20;;;;;;;14.49;84.35;98163.19;4182630;28;20630;-83
2023/05/05 01:35:54;;;;;;;14.93;12.37;;;;;;;14.49;85.01;98157.94;4167972;28;20688;-83
2023/05/05 01:38:01;;;;;;;13.80;12.07;;;;;;;14.51;83.84;98164.75;4173669;28;20633;-83
2023/05/05 01:40:08;;;;;;;13.97;12.47;;;;;;;14.51;84.96;98159.50;4169598;28;21021;-83
2023/05/05 01:42:13;;;;;;;13.20;11.03;;;;;;;14.50;85.68;98159.63;4159007;28;21245;-83
2023/05/05 01:44:18;;;;;;;14.63;13.10;;;;;;;14.50;85.34;98167.50;4158307;28;21240;-83
2023/05/05 01:46:23;;;;;;;14.50;12.70;;;;;;;14.51;84.84;98162.13;4168637;28;20629;-83
2023/05/05 01:48:28;;;;;;;14.83;13.10;;;;;;;14.53;84.60;98162.00;4170111;28;20629;-83
2023/05/05 01:50:32;;;;;;;13.73;12.33;;;;;;;14.52;85.06;98157.69;4150413;28;21180;-83
2023/05/05 01:52:36;;;;;;;13.90;12.10;;;;;;;14.51;84.70;98156.88;4156132;28;20621;-83
2023/05/05 01:54:40;;;;;;;14.50;12.60;;;;;;;14.50;84.64;98157.81;4167348;28;21052;-83
2023/05/05 01:56:44;;;;;;;15.30;13.10;;;;;;;14.49;85.70;98147.44;4156579;28;20653;-83
2023/05/05 01:58:47;;;;;;;14.90;13.40;;;;;;;14.49;85.61;98157.94;4156669;28;20645;-83
2023/05/05 02:00:51;;;;;;;16.63;13.97;;;;;;;14.46;85.92;98152.94;4157285;28;20622;-83
2023/05/05 02:02:56;;;;;;;16.73;12.77;;;;;;;14.46;84.91;98158.19;4173022;28;20637;-83
2023/05/05 02:05:02;;;;;;;14.73;13.20;;;;;;;14.47;85.08;98154.63;4173801;28;21334;-83
2023/05/05 02:07:06;;;;;;;14.67;12.90;;;;;;;14.46;84.58;98153.78;4174618;28;20643;-83
2023/05/05 02:09:12;;;;;;;13.67;12.37;;;;;;;14.46;84.40;98152.94;4172375;28;20645;-83
2023/05/05 02:11:15;;;;;;;15.87;12.80;;;;;;;14.43;85.17;98151.41;4155236;28;20660;-83
2023/05/05 02:13:19;;;;;;;14.07;12.13;;;;;;;14.42;84.46;98151.56;4167772;28;20643;-83
2023/05/05 02:15:23;;;;;;;17.20;13.60;;;;;;;14.41;84.80;98157.75;4169410;28;20632;-83
2023/05/05 02:17:27;;;;;;;15.63;13.70;;;;;;;14.37;84.54;98151.94;4165714;28;20772;-83
2023/05/05 02:19:34;;;;;;;15.63;14.03;;;;;;;14.36;84.74;98149.44;4174389;28;20629;-83
2023/05/05 02:21:38;;;;;;;17.30;14.30;;;;;;;14.33;84.69;98158.38;4172817;28;20670;-83
2023/05/05 02:23:41;;;;;;;16.67;14.17;;;;;;;14.29;84.60;98154.34;4175437;28;20655;-83
2023/05/05 02:25:50;;;;;;;16.00;14.30;;;;;;;14.26;84.82;98151.97;4170329;28;20639;-83
2023/05/05 02:27:56;;;;;;;16.27;13.50;;;;;;;14.25;84.95;98157.31;4166675;28;21210;-83
2023/05/05 02:30:03;;;;;;;15.83;14.20;;;;;;;14.23;84.55;98154.00;4159818;28;21427;-83
2023/05/05 02:32:09;;;;;;;16.30;14.20;;;;;;;14.20;84.87;98162.94;4165855;28;21256;-83
2023/05/05 02:34:13;;;;;;;16.00;14.30;;;;;;;14.19;84.65;98163.06;4169313;28;20683;-83
2023/05/05 02:36:20;;;;;;;16.90;14.50;;;;;;;14.17;84.94;98165.81;4168466;28;20665;-83
2023/05/05 02:38:29;;;;;;;16.17;14.47;;;;;;;14.17;84.99;98175.50;4154658;28;20669;-83
2023/05/05 02:40:38;;;;;;;16.30;13.53;;;;;;;14.15;85.12;98174.78;4186165;28;20626;-83
2023/05/05 02:42:43;;;;;;;15.67;14.07;;;;;;;14.12;85.16;98172.41;4168344;28;20669;-83
2023/05/05 02:44:47;;;;;;;16.73;14.50;;;;;;;14.10;85.41;98179.56;4169747;28;21056;-83
2023/05/05 02:46:51;;;;;;;16.70;14.40;;;;;;;14.10;84.72;98176.94;4177692;28;20629;-83
2023/05/05 02:48:55;;;;;;;17.77;14.90;;;;;;;14.09;85.07;98177.91;4174327;28;20635;-83
2023/05/05 02:50:58;;;;;;;16.60;14.87;;;;;;;14.06;85.37;98178.16;4175080;28;20709;-83
2023/05/05 02:53:07;;;;;;;16.87;15.07;;;;;;;14.04;85.89;98177.41;4151267;28;20641;-83
2023/05/05 02:55:12;;;;;;;16.67;14.83;;;;;;;14.02;85.80;98183.75;4171849;28;20692;-83
2023/05/05 02:57:19;;;;;;;17.33;15.47;;;;;;;14.03;86.18;98180.19;4172590;28;20672;-83
2023/05/05 02:59:35;;;;;;;22.53;15.80;;;;;;;14.02;85.78;98183.75;4151071;28;20629;-83
2023/05/05 03:01:47;;;;;;;18.10;16.13;;;;;;;14.01;85.77;98187.31;4171609;28;20986;-83
2023/05/05 03:04:00;;;;;;;17.67;15.77;;;;;;;14.01;85.54;98189.94;4187569;28;21259;-83
2023/05/05 03:06:10;;;;;;;18.80;15.93;;;;;;;13.98;85.65;98184.94;4174192;28;20666;-83
2023/05/05 03:08:17;;;;;;;18.00;16.20;;;;;;;13.97;85.75;98191.97;4178287;28;21003;-83
2023/05/05 03:10:27;;;;;;;21.33;17.20;;;;;;;13.96;85.60;98189.47;4170363;28;21227;-83
2023/05/05 03:12:37;;;;;;;18.20;16.40;;;;;;;13.91;85.13;98184.59;4187846;28;20733;-83
2023/05/05 03:14:52;;;;;;;18.93;16.93;;;;;;;13.90;85.60;98185.53;4160865;28;20633;-83
2023/05/05 03:16:56;;;;;;;19.93;15.80;;;;;;;13.89;85.89;98194.38;4169359;28;20667;-83
2023/05/05 03:19:00;;;;;;;19.70;17.10;;;;;;;13.87;85.74;98196.28;4170298;28;20682;-83
2023/05/05 03:21:07;;;;;;;17.57;15.73;;;;;;;13.85;85.72;98192.13;4173311;28;21242;-83
2023/05/05 03:23:13;;;;;;;20.90;16.50;;;;;;;13.83;85.92;98189.63;4174140;28;20623;-83
2023/05/05 03:25:19;;;;;;;19.07;17.07;;;;;;;13.84;85.64;98200.94;4169946;28;20637;-83
2023/05/05 03:27:24;;;;;;;18.13;16.23;;;;;;;13.83;86.05;98194.88;4177952;28;20639;-83
2023/05/05 03:29:28;;;;;;;18.93;16.43;;;;;;;13.82;86.34;98192.38;4170928;28;21059;-83
2023/05/05 03:31:33;;;;;;;19.33;15.67;;;;;;;13.83;85.86;98199.25;4158504;28;20632;-83
2023/05/05 03:33:37;;;;;;;17.67;15.77;;;;;;;13.81;86.25;98206.44;4174054;28;20636;-83
2023/05/05 03:35:40;;;;;;;17.63;15.67;;;;;;;13.79;85.87;98209.16;4159556;28;20672;-83
2023/05/05 03:37:46;;;;;;;17.43;15.53;;;;;;;13.78;85.97;98204.06;4166876;28;21281;-83
2023/05/05 03:39:51;;;;;;;17.33;15.00;;;;;;;13.74;85.77;98205.22;4173012;28;20996;-83
2023/05/05 03:41:55;;;;;;;18.60;14.87;;;;;;;13.72;85.97;98207.16;4173012;28;20667;-83
2023/05/05 03:44:02;;;;;;;16.73;15.03;;;;;;;13.71;86.13;98208.09;4177010;28;20705;-83
2023/05/05 03:46:05;;;;;;;19.20;15.87;;;;;;;13.69;86.95;98202.16;4182505;28;20980;-83
2023/05/05 03:48:09;;;;;;;21.57;16.20;;;;;;;13.66;85.63;98203.22;4164631;28;20628;-83
2023/05/05 03:50:13;;;;;;;17.90;16.00;;;;;;;13.62;85.77;98197.50;4174384;28;20635;-83
2023/05/05 03:52:17;;;;;;;18.70;16.03;;;;;;;13.60;85.97;98204.66;4172505;28;21315;-83
2023/05/05 03:54:20;;;;;;;16.53;14.83;;;;;;;13.56;86.91;98198.00;4170026;28;20683;-83
2023/05/05 03:56:23;;;;;;;16.80;15.07;;;;;;;13.54;86.31;98205.16;4153838;28;20653;-83
2023/05/05 03:58:27;;;;;;;18.07;14.70;;;;;;;13.53;86.88;98208.72;4175802;28;21745;-83
2023/05/05 04:00:31;;;;;;;16.83;15.13;;;;;;;13.52;87.08;98205.28;4174597;28;21135;-83
2023/05/05 04:02:35;;;;;;;16.50;14.77;;;;;;;13.52;86.34;98207.06;4173904;28;20645;-83
2023/05/05 04:04:38;;;;;;;17.50;15.20;;;;;;;13.50;87.45;98203.72;4174901;28;20648;-83
2023/05/05 04:06:41;;;;;;;16.57;14.87;;;;;;;13.54;85.91;98207.78;4176336;28;20632;-83
2023/05/05 04:08:45;;;;;;;17.83;14.83;;;;;;;13.50;85.80;98207.19;4158712;28;20640;-83
2023/05/05 04:10:48;;;;;;;16.57;14.77;;;;;;;13.49;87.36;98207.31;4154981;28;20669;-83
2023/05/05 04:12:51;;;;;;;16.30;14.17;;;;;;;13.48;87.61;98216.94;4158118;28;20639;-83
2023/05/05 04:14:54;;;;;;;16.63;14.90;;;;;;;13.47;87.70;98207.44;4167551;28;20632;-83
2023/05/05 04:16:59;;;;;;;16.17;14.27;;;;;;;13.45;87.29;98203.25;4168300;28;20697;-83
2023/05/05 04:19:02;;;;;;;17.20;14.20;;;;;;;13.44;87.70;98220.75;4169712;28;20639;-83
2023/05/05 04:21:07;;;;;;;19.30;14.73;;;;;;;13.44;88.35;98212.06;4176663;28;20628;-83
2023/05/05 04:23:10;;;;;;;17.70;14.33;;;;;;;13.46;88.05;98225.88;4156615;28;20652;-83
2023/05/05 04:25:14;;;;;;;17.03;14.27;;;;;;;13.48;87.68;98226.59;4157920;28;21295;-83
2023/05/05 04:27:18;;;;;;;14.57;13.03;;;;;;;13.49;87.65;98221.22;4162536;28;21187;-83
2023/05/05 04:29:22;;;;;;;15.73;14.13;;;;;;;13.52;88.15;98231.47;4151698;28;20679;-83
2023/05/05 04:31:25;;;;;;;16.80;14.57;;;;;;;13.55;88.13;98235.66;4168608;28;20666;-84
2023/05/05 04:33:30;;;;;;;15.13;13.43;;;;;;;13.58;87.90;98232.78;4168010;28;21237;-84
2023/05/05 04:35:33;;;;;;;16.70;13.60;;;;;;;13.62;88.00;98228.97;4170705;28;21264;-84
2023/05/05 04:37:36;;;;;;;16.83;14.20;;;;;;;13.63;88.04;98225.41;4176431;28;20665;-84
2023/05/05 04:39:40;;;;;;;16.80;13.77;;;;;;;13.65;88.38;98226.94;4157555;28;20660;-84
2023/05/05 04:41:43;;;;;;;16.00;13.97;;;;;;;13.69;88.84;98228.38;4173647;28;20631;-83
2023/05/05 04:43:46;;;;;;;16.53;14.20;;;;;;;13.74;87.66;98223.59;4173400;28;20739;-83
2023/05/05 04:45:53;;;;;;;16.50;13.97;;;;;;;13.79;88.28;98231.94;4169279;28;20675;-84
2023/05/05 04:47:59;;;;;;;16.10;14.00;;;;;;;13.85;88.22;98234.09;4172040;28;20624;-84
2023/05/05 04:50:04;;;;;;;15.57;12.93;;;;;;;13.89;87.57;98231.09;4167402;28;20647;-84
2023/05/05 04:52:08;;;;;;;17.60;14.00;;;;;;;13.92;87.66;98228.22;4172794;28;20634;-83
2023/05/05 04:54:11;;;;;;;15.23;12.50;;;;;;;13.93;87.18;98229.88;4168168;28;20619;-82
2023/05/05 04:56:14;;;;;;;14.27;12.77;;;;;;;13.95;86.15;98235.84;4169356;28;21081;-83
2023/05/05 04:58:17;;;;;;;19.93;17.90;;;;;;;13.98;86.99;98233.00;4169175;28;20713;-83
2023/05/05 05:00:22;;;;;;;15.90;14.03;;;;;;;14.04;86.96;98237.72;4163366;28;20644;-83
2023/05/05 05:02:25;;;;;;;17.00;14.20;;;;;;;14.09;87.23;98246.13;4166861;28;21095;-83
2023/05/05 05:04:28;;;;;;;16.23;14.03;;;;;;;14.15;87.13;98243.00;4161613;28;20636;-83
2023/05/05 05:06:33;;;;;;;18.93;15.10;;;;;;;14.18;86.39;98245.38;4171456;28;21089;-83
2023/05/05 05:08:36;;;;;;;18.50;15.07;;;;;;;14.22;86.43;98252.03;4163214;28;21103;-81
2023/05/05 05:10:39;;;;;;;18.97;14.70;;;;;;;14.26;86.69;98242.97;4181272;28;20647;-82
2023/05/05 05:12:43;;;;;;;17.50;15.27;;;;;;;14.29;86.76;98246.16;4152231;28;20736;-81
2023/05/05 05:14:46;;;;;;;16.43;14.37;;;;;;;14.32;86.35;98250.34;4176611;28;20818;-81
2023/05/05 05:16:51;;;;;;;17.73;13.70;;;;;;;14.30;86.11;98241.78;4165244;28;20721;-80
2023/05/05 05:18:56;;;;;;;18.90;14.40;;;;;;;14.31;86.40;98254.78;4169080;28;20656;-80
2023/05/05 05:21:00;;;;;;;15.50;13.63;;;;;;;14.31;86.05;98253.91;4169535;28;20637;-80
2023/05/05 05:23:04;;;;;;;15.27;13.73;;;;;;;14.29;85.26;98261.91;4171004;28;20616;-80
2023/05/05 05:25:11;;;;;;;16.10;14.40;;;;;;;14.26;85.40;98258.69;4172177;28;20723;-80
2023/05/05 05:27:15;;;;;;;21.83;16.50;;;;;;;14.25;85.81;98254.41;4164196;28;20655;-81
2023/05/05 05:29:22;;;;;;;18.67;15.40;;;;;;;14.26;86.40;98267.41;4172378;28;21118;-81
2023/05/05 05:31:25;;;;;;;18.17;15.20;;;;;;;14.30;86.09;98268.84;4165179;28;20682;-83
2023/05/05 05:33:28;;;;;;;20.83;16.00;;;;;;;14.35;86.98;98271.09;4165170;28;21029;-80
2023/05/05 05:35:33;;;;;;;20.63;16.53;;;;;;;14.44;86.79;98263.31;4167103;28;20658;-80
2023/05/05 05:37:36;;;;;;;21.57;16.50;;;;;;;14.73;85.64;98283.63;4173831;28;20727;-80
2023/05/05 05:39:41;;;;;;;21.20;16.43;;;;;;;15.06;86.88;98275.56;4175695;28;20665;-80
2023/05/05 05:41:46;;;;;;;22.00;16.73;;;;;;;15.42;83.60;98273.34;4171738;28;20619;-80
2023/05/05 05:43:49;;;;;;;18.10;15.03;;;;;;;15.74;82.37;98280.16;4167312;28;20637;-80
2023/05/05 05:45:53;;;;;;;22.13;16.70;;;;;;;16.02;79.84;98292.59;4157618;28;20648;-79
2023/05/05 05:47:56;;;;;;;21.73;16.70;;;;;;;16.17;80.31;98288.63;4168067;28;21216;-80
2023/05/05 05:49:59;;;;;;;20.90;16.00;;;;;;;16.42;80.46;98291.63;4183085;28;20636;-80
2023/05/05 05:52:03;;;;;;;20.17;16.00;;;;;;;16.69;80.68;98302.34;4158565;28;20637;-80
2023/05/05 05:54:06;;;;;;;20.50;16.87;;;;;;;16.93;80.16;98306.25;4167647;28;20788;-80
2023/05/05 05:56:11;;;;;;;20.40;15.80;;;;;;;17.11;77.92;98304.59;4170168;28;20630;-80
2023/05/05 05:58:15;;;;;;;19.93;16.03;;;;;;;17.18;79.30;98313.59;4153622;28;21205;-80
2023/05/05 06:00:19;;;;;;;19.07;15.80;;;;;;;17.35;78.60;98313.75;4172642;28;21098;-80
2023/05/05 06:02:29;;;;;;;18.93;16.10;;;;;;;17.38;79.08;98318.75;4169096;28;20648;-80
2023/05/05 06:04:33;;;;;;;18.83;16.33;;;;;;;17.25;79.06;98306.81;4165836;28;20645;-80
2023/05/05 06:06:36;;;;;;;19.00;16.03;;;;;;;17.20;78.62;98309.88;4163224;28;20645;-80
2023/05/05 06:08:40;;;;;;;16.73;14.20;;;;;;;17.43;78.83;98321.78;4158869;28;21022;-81
2023/05/05 06:10:43;;;;;;;17.80;14.00;;;;;;;17.74;78.67;98321.44;4170729;28;20634;-81
2023/05/05 06:12:52;;;;;;;16.53;14.20;;;;;;;18.04;77.66;98321.19;4172014;28;20687;-81
2023/05/05 06:14:55;;;;;;;17.83;13.90;;;;;;;18.25;76.11;98313.91;4174450;28;20653;-81
2023/05/05 06:16:59;;;;;;;19.40;14.83;;;;;;;18.52;76.53;98315.59;4173024;28;20630;-81
2023/05/05 06:19:08;;;;;;;16.60;13.90;;;;;;;18.55;75.31;98314.44;4173773;28;20701;-81
2023/05/05 06:21:12;;;;;;;21.57;15.80;;;;;;;18.40;77.92;98310.63;4172659;28;20978;-81
2023/05/05 06:23:15;;;;;;;19.00;14.60;;;;;;;18.32;77.94;98309.72;4170389;28;20628;-81
2023/05/05 06:25:24;;;;;;;22.27;15.87;;;;;;;18.32;80.57;98312.34;4159895;28;20808;-81
2023/05/05 06:27:27;;;;;;;23.70;16.50;;;;;;;18.64;79.52;98319.69;4167273;28;20740;-81
2023/05/05 06:29:32;;;;;;;18.00;15.90;;;;;;;18.96;79.29;98327.94;4164484;28;21021;-81
2023/05/05 06:31:35;;;;;;;18.70;14.07;;;;;;;19.13;78.16;98327.16;4162502;28;20669;-81
2023/05/05 06:33:38;;;;;;;22.03;15.20;;;;;;;19.38;77.44;98333.31;4168479;28;22903;-82
2023/05/05 06:35:41;;;;;;;23.10;14.87;;;;;;;19.61;75.04;98334.50;4170084;28;20632;-81
2023/05/05 06:37:44;;;;;;;18.53;13.27;;;;;;;19.90;75.78;98340.34;4172016;28;20625;-81
2023/05/05 06:39:47;;;;;;;20.63;14.13;;;;;;;20.23;73.57;98339.56;4171434;28;21041;-82
2023/05/05 06:41:50;;;;;;;17.97;14.33;;;;;;;20.50;74.72;98335.69;4176961;28;20735;-82
2023/05/05 06:43:53;;;;;;;18.93;13.97;;;;;;;20.42;74.23;98333.00;4169682;28;20628;-81
2023/05/05 06:45:58;;;;;;;18.50;13.97;;;;;;;20.29;75.79;98323.03;4168847;28;20636;-81
2023/05/05 06:48:01;;;;;;;14.80;13.20;;;;;;;20.20;76.79;98323.97;4176454;28;20621;-81
2023/05/05 06:50:05;;;;;;;17.13;13.17;;;;;;;20.16;76.32;98331.41;4172009;28;20636;-81
2023/05/05 06:52:09;;;;;;;12.50;11.20;;;;;;;20.11;79.34;98327.56;4172778;28;20689;-82
2023/05/05 06:54:12;;;;;;;13.27;11.97;;;;;;;20.05;77.29;98328.19;4175119;28;21211;-82
2023/05/05 06:56:16;;;;;;;13.50;11.93;;;;;;;19.98;76.88;98322.69;4170627;28;20657;-82
2023/05/05 06:58:19;;;;;;;13.03;11.20;;;;;;;19.93;79.10;98322.31;4172430;28;20676;-82
2023/05/05 07:00:23;;;;;;;12.90;11.27;;;;;;;19.87;79.44;98322.13;4173884;28;20700;-81
2023/05/05 07:02:28;;;;;;;13.37;10.80;;;;;;;19.83;77.86;98327.84;4176252;28;20997;-81
2023/05/05 07:04:31;;;;;;;11.67;10.47;;;;;;;19.92;79.05;98333.91;4168539;28;21036;-81
2023/05/05 07:06:34;;;;;;;11.10;9.90;;;;;;;20.38;76.94;98336.13;4169919;28;20667;-81
2023/05/05 07:08:37;;;;;;;14.20;11.20;;;;;;;20.89;76.50;98344.81;4169778;28;21227;-81
2023/05/05 07:10:41;;;;;;;14.43;11.10;;;;;;;21.28;74.34;98350.16;4170873;28;20722;-81
2023/05/05 07:12:44;;;;;;;16.40;11.57;;;;;;;21.67;74.16;98355.72;4174351;28;21006;-81
2023/05/05 07:14:47;;;;;;;11.77;10.57;;;;;;;22.15;72.00;98369.75;4172481;28;20637;-81
2023/05/05 07:16:50;;;;;;;11.40;10.30;;;;;;;22.51;73.82;98355.91;4174323;28;20732;-81
2023/05/05 07:18:55;;;;;;;10.63;9.60;;;;;;;22.85;71.99;98357.22;4168163;28;20667;-81
2023/05/05 07:20:58;;;;;;;9.30;7.87;;;;;;;23.10;69.98;98350.81;4173740;28;20644;-81
2023/05/05 07:23:04;;;;;;;8.50;7.70;;;;;;;23.06;70.66;98347.63;4176361;28;20638;-81
2023/05/05 07:25:08;;;;;;;9.03;8.03;;;;;;;23.03;71.07;98349.84;4156238;28;20690;-81
2023/05/05 07:27:11;;;;;;;7.73;7.03;;;;;;;23.10;70.74;98350.81;4170979;28;20622;-81
2023/05/05 07:29:15;;;;;;;8.30;7.23;;;;;;;23.06;70.80;98344.16;4171963;28;20659;-81
2023/05/05 07:31:18;;;;;;;9.03;7.20;;;;;;;22.95;70.37;98349.88;4170298;28;20659;-81
2023/05/05 07:33:22;;;;;;;8.53;7.13;;;;;;;22.87;70.37;98341.94;4172649;28;20632;-81
2023/05/05 07:35:26;;;;;;;7.80;6.50;;;;;;;22.76;70.54;98340.47;4168755;28;20636;-81
2023/05/05 07:37:30;;;;;;;7.70;6.70;;;;;;;22.64;70.36;98342.84;4172207;28;20675;-81
2023/05/05 07:39:34;;;;;;;8.70;7.20;;;;;;;22.36;70.30;98341.66;4173242;28;20668;-81
2023/05/05 07:41:37;;;;;;;8.90;7.20;;;;;;;22.14;72.14;98349.50;4178114;28;20658;-81
2023/05/05 07:43:40;;;;;;;8.40;7.33;;;;;;;22.07;71.90;98351.16;4167218;28;20644;-81
2023/05/05 07:45:46;;;;;;;7.70;6.90;;;;;;;22.00;72.23;98347.53;4174269;28;20635;-81
2023/05/05 07:47:49;;;;;;;7.20;6.60;;;;;;;21.94;73.01;98349.03;4185392;28;20621;-81
2023/05/05 07:49:53;;;;;;;8.20;7.40;;;;;;;21.86;73.06;98341.06;4169740;28;20622;-81
2023/05/05 07:51:58;;;;;;;12.87;7.10;;;;;;;21.84;73.03;98340.38;4165020;28;20642;-81
2023/05/05 07:54:01;;;;;;;9.20;7.40;;;;;;;21.80;72.98;98335.63;4168920;28;20645;-81
2023/05/05 07:56:05;;;;;;;7.83;6.93;;;;;;;21.69;72.61;98343.91;4169659;28;21262;-82
2023/05/05 07:58:09;;;;;;;8.10;7.30;;;;;;;21.54;72.69;98334.94;4165313;28;21109;-83
2023/05/05 08:00:13;;;;;;;8.20;7.20;;;;;;;21.47;73.40;98347.25;4169558;28;21007;-81
2023/05/05 08:02:17;;;;;;;8.20;7.23;;;;;;;21.47;73.93;98341.94;4156173;28;20674;-84
2023/05/05 08:04:20;;;;;;;9.90;7.50;;;;;;;21.43;73.93;98342.41;4165958;28;20734;-81
2023/05/05 08:06:24;;;;;;;9.87;7.73;;;;;;;21.36;73.66;98338.72;4168156;28;21237;-81
2023/05/05 08:08:28;;;;;;;14.63;8.43;;;;;;;21.32;75.71;98340.91;4180072;28;21209;-82
2023/05/05 08:10:31;;;;;;;13.73;8.33;;;;;;;21.32;75.69;98342.72;4151736;28;20638;-82
2023/05/05 08:12:35;;;;;;;41.00;10.50;;;;;;;21.34;75.00;98332.78;4169965;28;20635;-82
2023/05/05 08:14:41;;;;;;;15.23;7.77;;;;;;;21.39;75.94;98333.94;4163813;28;20626;-82
2023/05/05 08:16:44;;;;;;;9.80;7.70;;;;;;;21.45;75.25;98333.28;4169302;28;20623;-82
2023/05/05 08:18:47;;;;;;;8.47;7.40;;;;;;;21.49;75.75;98333.81;4169018;28;20623;-82
2023/05/05 08:20:51;;;;;;;29.50;26.53;;;;;;;21.49;75.46;98331.97;4168406;28;20706;-82
2023/05/05 08:22:55;;;;;;;9.73;7.50;;;;;;;21.47;75.89;98335.78;4171673;28;20955;-82
2023/05/05 08:24:59;;;;;;;8.03;7.23;;;;;;;21.46;76.90;98342.09;4167522;28;20642;-82
2023/05/05 08:27:02;;;;;;;8.83;7.33;;;;;;;21.43;77.45;98343.22;4171613;28;20643;-82
2023/05/05 08:29:06;;;;;;;9.63;7.97;;;;;;;21.43;76.75;98347.72;4169691;28;20641;-82
2023/05/05 08:31:09;;;;;;;8.23;7.07;;;;;;;21.32;77.41;98348.84;4158779;28;20997;-82
2023/05/05 08:33:12;;;;;;;9.10;7.47;;;;;;;21.27;77.63;98348.53;4172071;28;20697;-82
2023/05/05 08:35:15;;;;;;;8.70;7.60;;;;;;;21.21;76.46;98352.81;4161541;28;21288;-82
2023/05/05 08:37:19;;;;;;;9.50;7.10;;;;;;;21.18;78.69;98350.50;4160981;28;20639;-82
2023/05/05 08:39:22;;;;;;;13.03;7.37;;;;;;;21.10;77.51;98345.19;4172824;28;20750;-82
2023/05/05 08:41:26;;;;;;;7.50;6.70;;;;;;;21.07;79.06;98356.13;4178377;28;20681;-82
2023/05/05 08:43:29;;;;;;;8.90;7.03;;;;;;;21.14;78.06;98346.50;4163057;28;20654;-82
2023/05/05 08:45:32;;;;;;;10.00;7.10;;;;;;;21.23;78.53;98353.47;4165066;28;20627;-82
2023/05/05 08:47:36;;;;;;;7.77;7.07;;;;;;;21.22;77.27;98354.50;4167482;28;20642;-82
2023/05/05 08:49:45;;;;;;;7.73;7.03;;;;;;;21.23;77.85;98350.81;4176675;28;20638;-82
2023/05/05 08:51:48;;;;;;;7.80;7.00;;;;;;;21.19;77.68;98346.84;4168153;28;21209;-82
2023/05/05 08:53:58;;;;;;;8.40;7.60;;;;;;;21.24;77.66;98349.84;4146418;28;20640;-81
2023/05/05 08:56:02;;;;;;;7.57;6.77;;;;;;;21.28;78.50;98355.47;4168311;28;21235;-82
2023/05/05 08:58:09;;;;;;;8.00;6.53;;;;;;;21.30;80.30;98353.50;4169626;28;20674;-82
2023/05/05 09:00:14;;;;;;;10.20;7.10;;;;;;;21.30;78.72;98352.66;4173032;28;20700;-82
2023/05/05 09:02:18;;;;;;;9.03;7.47;;;;;;;21.32;78.72;98359.47;4173944;28;21203;-82
2023/05/05 09:04:21;;;;;;;9.73;7.10;;;;;;;21.35;77.82;98358.31;4172031;28;20675;-82
2023/05/05 09:06:27;;;;;;;7.33;6.50;;;;;;;21.34;76.95;98356.66;4138913;28;20755;-82
2023/05/05 09:08:31;;;;;;;7.23;5.90;;;;;;;21.32;77.18;98354.16;4166697;28;20639;-82
2023/05/05 09:10:35;;;;;;;7.03;6.10;;;;;;;21.32;79.89;98354.16;4170628;28;20645;-82
2023/05/05 09:12:40;;;;;;;8.70;6.30;;;;;;;21.24;80.28;98353.31;4169751;28;21016;-81
2023/05/05 09:14:46;;;;;;;12.30;6.50;;;;;;;21.09;81.55;98349.63;4153370;28;21194;-85
2023/05/05 09:16:49;;;;;;;10.73;6.67;;;;;;;21.03;81.93;98350.31;4165127;28;20647;-84
2023/05/05 09:19:01;;;;;;;7.00;6.30;;;;;;;20.92;82.41;98341.81;4168510;28;20727;-83
2023/05/05 09:21:19;;;;;;;8.97;7.00;;;;;;;20.82;83.42;98351.72;4171483;28;20654;-83
2023/05/05 09:23:22;;;;;;;8.43;7.07;;;;;;;20.71;82.08;98354.69;4169048;28;20652;-84
2023/05/05 09:25:25;;;;;;;14.23;10.60;;;;;;;20.66;83.16;98354.31;4170683;28;20725;-84
2023/05/05 09:27:28;;;;;;;10.50;8.13;;;;;;;20.62;82.98;98350.31;4170877;28;20654;-84
2023/05/05 09:29:31;;;;;;;11.10;9.40;;;;;;;20.65;84.09;98355.28;4168649;28;20636;-83
2023/05/05 09:31:37;;;;;;;11.63;7.63;;;;;;;20.75;84.52;98350.75;4170316;28;20624;-84
2023/05/05 09:33:40;;;;;;;8.57;7.30;;;;;;;20.83;84.38;98353.41;4171370;28;20639;-84
2023/05/05 09:35:51;;;;;;;7.17;6.30;;;;;;;20.91;83.45;98356.06;4170925;28;20637;-84
2023/05/05 09:37:54;;;;;;;8.90;7.00;;;;;;;21.00;82.96;98353.31;4163019;28;20660;-83